Tropical Cyclones
[Index]
Main Index Home Page Stock Weather Photos Extreme Storms Discussion Storm News and Storm Chasing Reports Tropical Cyclones / Hurricanes / Typhoons Weather Data and Links Wild Fires / Bushfires Weather Observation Techniques Weather Picture Catalogue Tornado Pictures and Reports Stock Video Footage and DVDs for sale
Season 2007-2008 Tropical Cyclone GULA Track Map
Season 2007-2008 Summaries: [BoM-AU] [JTWC-AU] [JTWC-SIO] [JTWC-SPAC] [JTWC-SH]
<<- Previous TC | JTWC 2007-2008 Season | Next TC ->>

click for intensity scale information  Lat/long Grid: Show Hide

 Date Labels: Show Hide

Joint Typhoon Warning Centre Cyclone Data

Name: GULA

26 Jan 2008 00:00 UTC to 01 Feb 2008 12:00 UTC

    date/time    lat    long     hPa   cat  kts
2008-01-26 00   10.2    61.9    1004         25          
2008-01-26 06   10.9    62.0    1004         25          
2008-01-26 12   11.5    62.1    1003         25          
2008-01-26 18   12.1    62.2    1001         30          
2008-01-27 00   12.7    62.4     996         35          
2008-01-27 06   13.3    62.6     996         35          
2008-01-27 12   13.8    62.8     993    1    40          
2008-01-27 18   14.3    62.8     989    1    45          
2008-01-28 00   14.6    62.7     985    1    50          
2008-01-28 06   14.8    62.5     982    2    55          
2008-01-28 06   14.8    62.5     982    2    55          
2008-01-28 12   14.8    62.2     974    2    65          
2008-01-28 12   14.8    62.2     974    2    65          
2008-01-28 18   14.7    62.0     970    2    70          
2008-01-28 18   14.7    62.0     970    2    70          
2008-01-28 18   14.7    62.0     970    2    70          
2008-01-29 00   14.7    61.8     959    3    85          
2008-01-29 00   14.7    61.8     959    3    85          
2008-01-29 00   14.7    61.8     959    3    85          
2008-01-29 06   14.7    61.5     956    3    90          
2008-01-29 06   14.7    61.5     956    3    90          
2008-01-29 06   14.7    61.5     956    3    90          
2008-01-29 12   14.8    61.1     956    3    90          
2008-01-29 12   14.8    61.1     956    3    90          
2008-01-29 12   14.8    61.1     956    3    90          
2008-01-29 18   14.9    60.7     959    3    85          
2008-01-29 18   14.9    60.7     959    3    85          
2008-01-29 18   14.9    60.7     959    3    85          
2008-01-30 00   15.3    60.2     963    3    80          
2008-01-30 00   15.3    60.2     963    3    80          
2008-01-30 00   15.3    60.2     963    3    80          
2008-01-30 06   15.9    60.1     967    3    75          
2008-01-30 06   15.9    60.1     967    3    75          
2008-01-30 06   15.9    60.1     967    3    75          
2008-01-30 12   16.5    60.0     970    2    70          
2008-01-30 12   16.5    60.0     970    2    70          
2008-01-30 12   16.5    60.0     970    2    70          
2008-01-30 18   17.4    59.7     978    2    60          
2008-01-30 18   17.4    59.7     978    2    60          
2008-01-31 00   18.5    59.5     982    2    55          
2008-01-31 00   18.5    59.5     982    2    55          
2008-01-31 06   20.0    59.3     985    1    50          
2008-01-31 12   22.2    58.4     982    1    45          
2008-01-31 18   24.4    57.3     989    1    45          
2008-02-01 00   25.7    55.6     989    1    45          
2008-02-01 06   26.5    54.9     996         35          
2008-02-01 12   27.0    54.9    1000         30          
Winds are 1-min average.

Tropical cyclone tracks developed by Michael Bath using data from the Joint Typhoon Warning Centre Best Tracks and Google Maps.


[Australian Severe Weather index] [Copyright Notice] [Email Contacts] [Search This Site] [Privacy Policy]
Document: tropical_cyclone_gula.htm Updated: 28 June 2017